sensor_id;sensor_type;location;lat;lon;timestamp;P1;durP1;ratioP1;P2;durP2;ratioP2
21507;SDS011;10915;54.352;9.074;2022-09-20T00:03:40;3.50;;;1.23;;
21507;SDS011;10915;54.352;9.074;2022-09-20T00:06:10;3.30;;;0.97;;
21507;SDS011;10915;54.352;9.074;2022-09-20T00:08:38;3.97;;;0.90;;
21507;SDS011;10915;54.352;9.074;2022-09-20T00:11:08;2.97;;;0.90;;
21507;SDS011;10915;54.352;9.074;2022-09-20T00:13:37;3.90;;;0.70;;
21507;SDS011;10915;54.352;9.074;2022-09-20T00:16:04;4.57;;;1.20;;
21507;SDS011;10915;54.352;9.074;2022-09-20T00:18:31;1.80;;;0.70;;
21507;SDS011;10915;54.352;9.074;2022-09-20T00:20:57;2.40;;;1.20;;
21507;SDS011;10915;54.352;9.074;2022-09-20T00:23:23;4.30;;;1.00;;
21507;SDS011;10915;54.352;9.074;2022-09-20T00:26:01;1.93;;;0.80;;
21507;SDS011;10915;54.352;9.074;2022-09-20T00:28:28;2.90;;;0.90;;
21507;SDS011;10915;54.352;9.074;2022-09-20T00:30:55;3.70;;;1.10;;
21507;SDS011;10915;54.352;9.074;2022-09-20T00:33:22;1.97;;;0.53;;
21507;SDS011;10915;54.352;9.074;2022-09-20T00:35:50;3.43;;;0.93;;
21507;SDS011;10915;54.352;9.074;2022-09-20T00:38:15;1.87;;;1.00;;
21507;SDS011;10915;54.352;9.074;2022-09-20T00:40:42;3.13;;;1.00;;
21507;SDS011;10915;54.352;9.074;2022-09-20T00:43:12;3.60;;;1.00;;
21507;SDS011;10915;54.352;9.074;2022-09-20T00:45:43;4.40;;;1.00;;
21507;SDS011;10915;54.352;9.074;2022-09-20T00:48:26;2.27;;;1.03;;
21507;SDS011;10915;54.352;9.074;2022-09-20T00:50:56;4.57;;;1.03;;
21507;SDS011;10915;54.352;9.074;2022-09-20T00:53:31;5.30;;;1.57;;
21507;SDS011;10915;54.352;9.074;2022-09-20T00:56:03;8.23;;;1.50;;
21507;SDS011;10915;54.352;9.074;2022-09-20T00:58:43;2.53;;;1.00;;
21507;SDS011;10915;54.352;9.074;2022-09-20T01:01:13;6.07;;;1.10;;
21507;SDS011;10915;54.352;9.074;2022-09-20T01:03:39;8.40;;;1.40;;
21507;SDS011;10915;54.352;9.074;2022-09-20T01:06:07;4.87;;;1.37;;
21507;SDS011;10915;54.352;9.074;2022-09-20T01:08:37;5.23;;;1.50;;
21507;SDS011;10915;54.352;9.074;2022-09-20T01:11:08;3.70;;;1.27;;
21507;SDS011;10915;54.352;9.074;2022-09-20T01:13:34;9.60;;;2.13;;
21507;SDS011;10915;54.352;9.074;2022-09-20T01:15:59;7.33;;;1.13;;
21507;SDS011;10915;54.352;9.074;2022-09-20T01:18:27;4.47;;;1.27;;
21507;SDS011;10915;54.352;9.074;2022-09-20T01:20:55;2.77;;;1.00;;
21507;SDS011;10915;54.352;9.074;2022-09-20T01:23:29;4.77;;;1.33;;
21507;SDS011;10915;54.352;9.074;2022-09-20T01:31:41;6.83;;;1.37;;
21507;SDS011;10915;54.352;9.074;2022-09-20T01:34:14;5.23;;;1.53;;
21507;SDS011;10915;54.352;9.074;2022-09-20T01:37:05;3.73;;;0.90;;
21507;SDS011;10915;54.352;9.074;2022-09-20T01:42:11;3.67;;;1.27;;
21507;SDS011;10915;54.352;9.074;2022-09-20T01:47:27;4.47;;;1.03;;
21507;SDS011;10915;54.352;9.074;2022-09-20T01:49:58;6.80;;;1.70;;
21507;SDS011;10915;54.352;9.074;2022-09-20T01:55:30;5.50;;;1.13;;
21507;SDS011;10915;54.352;9.074;2022-09-20T02:01:20;5.70;;;1.60;;
21507;SDS011;10915;54.352;9.074;2022-09-20T02:13:05;5.50;;;1.10;;
21507;SDS011;10915;54.352;9.074;2022-09-20T02:21:04;3.33;;;0.80;;
21507;SDS011;10915;54.352;9.074;2022-09-20T02:26:40;4.40;;;1.40;;
21507;SDS011;10915;54.352;9.074;2022-09-20T02:29:40;4.60;;;1.13;;
21507;SDS011;10915;54.352;9.074;2022-09-20T02:32:19;4.40;;;1.30;;
21507;SDS011;10915;54.352;9.074;2022-09-20T02:35:10;3.07;;;1.13;;
21507;SDS011;10915;54.352;9.074;2022-09-20T02:43:13;4.80;;;1.53;;
21507;SDS011;10915;54.352;9.074;2022-09-20T02:46:05;2.60;;;1.27;;
21507;SDS011;10915;54.352;9.074;2022-09-20T02:51:20;4.30;;;1.20;;
21507;SDS011;10915;54.352;9.074;2022-09-20T02:54:02;3.77;;;1.23;;
21507;SDS011;10915;54.352;9.074;2022-09-20T02:56:38;6.63;;;1.20;;
21507;SDS011;10915;54.352;9.074;2022-09-20T02:59:21;5.40;;;1.37;;
21507;SDS011;10915;54.352;9.074;2022-09-20T03:16:32;6.77;;;1.33;;
21507;SDS011;10915;54.352;9.074;2022-09-20T03:28:00;7.17;;;1.33;;
21507;SDS011;10915;54.352;9.074;2022-09-20T03:36:24;6.33;;;1.43;;
21507;SDS011;10915;54.352;9.074;2022-09-20T03:41:33;5.13;;;1.63;;
21507;SDS011;10915;54.352;9.074;2022-09-20T03:47:02;6.33;;;1.23;;
21507;SDS011;10915;54.352;9.074;2022-09-20T04:14:22;4.07;;;1.57;;
21507;SDS011;10915;54.352;9.074;2022-09-20T04:16:59;3.63;;;1.43;;
21507;SDS011;10915;54.352;9.074;2022-09-20T04:22:15;6.93;;;2.43;;
21507;SDS011;10915;54.352;9.074;2022-09-20T04:24:52;10.23;;;2.30;;
21507;SDS011;10915;54.352;9.074;2022-09-20T04:30:05;6.27;;;1.97;;
21507;SDS011;10915;54.352;9.074;2022-09-20T04:32:40;5.10;;;1.87;;
21507;SDS011;10915;54.352;9.074;2022-09-20T04:35:12;6.10;;;1.63;;
21507;SDS011;10915;54.352;9.074;2022-09-20T04:38:18;7.60;;;1.70;;
21507;SDS011;10915;54.352;9.074;2022-09-20T04:43:54;4.17;;;1.33;;
21507;SDS011;10915;54.352;9.074;2022-09-20T04:49:52;1.30;;;0.53;;
21507;SDS011;10915;54.352;9.074;2022-09-20T04:56:02;1.27;;;0.40;;
21507;SDS011;10915;54.352;9.074;2022-09-20T04:58:48;1.07;;;0.50;;
21507;SDS011;10915;54.352;9.074;2022-09-20T05:26:07;2.20;;;0.80;;
21507;SDS011;10915;54.352;9.074;2022-09-20T05:32:05;0.90;;;0.37;;
21507;SDS011;10915;54.352;9.074;2022-09-20T05:34:54;1.80;;;0.30;;
21507;SDS011;10915;54.352;9.074;2022-09-20T05:37:31;2.30;;;0.30;;
21507;SDS011;10915;54.352;9.074;2022-09-20T05:56:24;1.60;;;0.40;;
21507;SDS011;10915;54.352;9.074;2022-09-20T06:01:36;0.87;;;0.20;;
21507;SDS011;10915;54.352;9.074;2022-09-20T06:07:36;1.43;;;0.30;;
21507;SDS011;10915;54.352;9.074;2022-09-20T06:15:13;0.67;;;0.30;;
21507;SDS011;10915;54.352;9.074;2022-09-20T06:18:06;2.40;;;0.40;;
21507;SDS011;10915;54.352;9.074;2022-09-20T06:23:24;1.60;;;0.53;;
21507;SDS011;10915;54.352;9.074;2022-09-20T06:28:31;2.03;;;0.77;;
21507;SDS011;10915;54.352;9.074;2022-09-20T06:30:59;4.67;;;0.73;;
21507;SDS011;10915;54.352;9.074;2022-09-20T06:33:26;3.27;;;1.20;;
21507;SDS011;10915;54.352;9.074;2022-09-20T06:41:48;2.43;;;0.70;;
21507;SDS011;10915;54.352;9.074;2022-09-20T06:44:13;0.90;;;0.70;;
21507;SDS011;10915;54.352;9.074;2022-09-20T06:46:39;1.73;;;0.60;;
21507;SDS011;10915;54.352;9.074;2022-09-20T06:49:05;1.50;;;0.80;;
21507;SDS011;10915;54.352;9.074;2022-09-20T06:51:33;1.47;;;0.60;;
21507;SDS011;10915;54.352;9.074;2022-09-20T06:54:01;2.60;;;1.20;;
21507;SDS011;10915;54.352;9.074;2022-09-20T06:56:28;3.60;;;1.43;;
21507;SDS011;10915;54.352;9.074;2022-09-20T06:58:56;1.90;;;1.20;;
21507;SDS011;10915;54.352;9.074;2022-09-20T07:01:22;4.73;;;3.07;;
21507;SDS011;10915;54.352;9.074;2022-09-20T07:03:47;3.97;;;2.60;;
21507;SDS011;10915;54.352;9.074;2022-09-20T07:06:13;8.97;;;5.90;;
21507;SDS011;10915;54.352;9.074;2022-09-20T07:08:44;6.17;;;4.70;;
21507;SDS011;10915;54.352;9.074;2022-09-20T07:11:11;5.87;;;5.03;;
21507;SDS011;10915;54.352;9.074;2022-09-20T07:13:40;8.60;;;6.37;;
21507;SDS011;10915;54.352;9.074;2022-09-20T07:16:11;13.63;;;12.17;;
21507;SDS011;10915;54.352;9.074;2022-09-20T07:18:40;14.23;;;12.33;;
21507;SDS011;10915;54.352;9.074;2022-09-20T07:21:13;12.03;;;9.47;;
21507;SDS011;10915;54.352;9.074;2022-09-20T07:23:41;11.73;;;9.10;;
21507;SDS011;10915;54.352;9.074;2022-09-20T07:26:15;11.70;;;9.50;;
21507;SDS011;10915;54.352;9.074;2022-09-20T07:28:47;9.80;;;8.70;;
21507;SDS011;10915;54.352;9.074;2022-09-20T07:31:14;8.23;;;5.60;;
21507;SDS011;10915;54.352;9.074;2022-09-20T07:33:41;6.10;;;3.23;;
21507;SDS011;10915;54.352;9.074;2022-09-20T07:36:08;4.50;;;2.10;;
21507;SDS011;10915;54.352;9.074;2022-09-20T07:38:34;3.80;;;2.03;;
21507;SDS011;10915;54.352;9.074;2022-09-20T07:41:00;4.93;;;2.40;;
21507;SDS011;10915;54.352;9.074;2022-09-20T07:43:27;5.20;;;3.30;;
21507;SDS011;10915;54.352;9.074;2022-09-20T07:45:54;7.67;;;3.57;;
21507;SDS011;10915;54.352;9.074;2022-09-20T07:48:22;9.53;;;4.63;;
21507;SDS011;10915;54.352;9.074;2022-09-20T07:51:01;7.07;;;3.37;;
21507;SDS011;10915;54.352;9.074;2022-09-20T07:53:31;6.53;;;3.60;;
21507;SDS011;10915;54.352;9.074;2022-09-20T07:56:09;10.43;;;4.70;;
21507;SDS011;10915;54.352;9.074;2022-09-20T07:58:39;9.70;;;2.83;;
21507;SDS011;10915;54.352;9.074;2022-09-20T08:01:07;7.83;;;2.50;;
21507;SDS011;10915;54.352;9.074;2022-09-20T08:03:35;12.77;;;2.83;;
21507;SDS011;10915;54.352;9.074;2022-09-20T08:06:03;10.50;;;2.67;;
21507;SDS011;10915;54.352;9.074;2022-09-20T08:08:32;7.10;;;1.90;;
21507;SDS011;10915;54.352;9.074;2022-09-20T08:11:10;7.90;;;2.33;;
21507;SDS011;10915;54.352;9.074;2022-09-20T08:13:42;12.27;;;2.23;;
21507;SDS011;10915;54.352;9.074;2022-09-20T08:16:09;11.17;;;2.17;;
21507;SDS011;10915;54.352;9.074;2022-09-20T08:18:36;12.77;;;2.33;;
21507;SDS011;10915;54.352;9.074;2022-09-20T08:21:03;11.33;;;2.20;;
21507;SDS011;10915;54.352;9.074;2022-09-20T08:23:30;8.53;;;2.00;;
21507;SDS011;10915;54.352;9.074;2022-09-20T08:26:01;7.40;;;1.80;;
21507;SDS011;10915;54.352;9.074;2022-09-20T08:28:28;10.87;;;2.10;;
21507;SDS011;10915;54.352;9.074;2022-09-20T08:31:08;8.73;;;1.70;;
21507;SDS011;10915;54.352;9.074;2022-09-20T08:33:37;5.77;;;1.60;;
21507;SDS011;10915;54.352;9.074;2022-09-20T08:36:04;7.20;;;1.97;;
21507;SDS011;10915;54.352;9.074;2022-09-20T08:38:31;8.23;;;1.70;;
21507;SDS011;10915;54.352;9.074;2022-09-20T08:41:00;7.03;;;1.40;;
21507;SDS011;10915;54.352;9.074;2022-09-20T08:43:34;10.80;;;2.43;;
21507;SDS011;10915;54.352;9.074;2022-09-20T08:46:13;9.77;;;2.20;;
21507;SDS011;10915;54.352;9.074;2022-09-20T08:48:41;9.80;;;1.80;;
21507;SDS011;10915;54.352;9.074;2022-09-20T08:51:08;7.27;;;2.10;;
21507;SDS011;10915;54.352;9.074;2022-09-20T08:53:35;3.83;;;1.40;;
21507;SDS011;10915;54.352;9.074;2022-09-20T08:56:07;8.27;;;1.90;;
21507;SDS011;10915;54.352;9.074;2022-09-20T08:58:35;6.43;;;1.87;;
21507;SDS011;10915;54.352;9.074;2022-09-20T09:01:03;7.60;;;1.70;;
21507;SDS011;10915;54.352;9.074;2022-09-20T09:03:30;12.30;;;2.40;;
21507;SDS011;10915;54.352;9.074;2022-09-20T09:05:57;9.33;;;1.70;;
21507;SDS011;10915;54.352;9.074;2022-09-20T09:08:34;11.57;;;2.83;;
21507;SDS011;10915;54.352;9.074;2022-09-20T09:11:20;9.60;;;1.80;;
21507;SDS011;10915;54.352;9.074;2022-09-20T09:16:29;11.53;;;2.03;;
21507;SDS011;10915;54.352;9.074;2022-09-20T09:18:57;6.67;;;1.77;;
21507;SDS011;10915;54.352;9.074;2022-09-20T09:21:42;5.07;;;1.33;;
21507;SDS011;10915;54.352;9.074;2022-09-20T09:24:18;3.30;;;1.20;;
21507;SDS011;10915;54.352;9.074;2022-09-20T09:26:44;4.83;;;1.07;;
21507;SDS011;10915;54.352;9.074;2022-09-20T09:31:43;11.37;;;1.93;;
21507;SDS011;10915;54.352;9.074;2022-09-20T09:36:48;7.17;;;1.83;;
21507;SDS011;10915;54.352;9.074;2022-09-20T09:39:33;9.67;;;2.77;;
21507;SDS011;10915;54.352;9.074;2022-09-20T09:45:09;13.17;;;1.80;;
21507;SDS011;10915;54.352;9.074;2022-09-20T09:47:36;8.27;;;2.10;;
21507;SDS011;10915;54.352;9.074;2022-09-20T09:50:02;9.07;;;1.40;;
21507;SDS011;10915;54.352;9.074;2022-09-20T09:52:28;12.27;;;2.03;;
21507;SDS011;10915;54.352;9.074;2022-09-20T09:54:57;7.77;;;1.80;;
21507;SDS011;10915;54.352;9.074;2022-09-20T10:05:23;14.07;;;2.37;;
21507;SDS011;10915;54.352;9.074;2022-09-20T10:08:12;7.60;;;1.47;;
21507;SDS011;10915;54.352;9.074;2022-09-20T10:13:59;6.10;;;1.40;;
21507;SDS011;10915;54.352;9.074;2022-09-20T10:22:20;8.57;;;2.13;;
21507;SDS011;10915;54.352;9.074;2022-09-20T10:30:33;4.10;;;0.93;;
21507;SDS011;10915;54.352;9.074;2022-09-20T10:33:16;5.93;;;1.30;;
21507;SDS011;10915;54.352;9.074;2022-09-20T10:41:01;8.03;;;1.43;;
21507;SDS011;10915;54.352;9.074;2022-09-20T10:52:15;6.57;;;1.47;;
21507;SDS011;10915;54.352;9.074;2022-09-20T10:57:49;7.20;;;1.57;;
21507;SDS011;10915;54.352;9.074;2022-09-20T11:00:42;6.03;;;1.27;;
21507;SDS011;10915;54.352;9.074;2022-09-20T11:06:15;4.63;;;1.43;;
21507;SDS011;10915;54.352;9.074;2022-09-20T11:08:53;6.17;;;1.00;;
21507;SDS011;10915;54.352;9.074;2022-09-20T11:11:25;7.97;;;1.90;;
21507;SDS011;10915;54.352;9.074;2022-09-20T11:16:36;11.63;;;1.60;;
21507;SDS011;10915;54.352;9.074;2022-09-20T11:19:27;5.60;;;1.50;;
21507;SDS011;10915;54.352;9.074;2022-09-20T11:22:19;3.23;;;0.90;;
21507;SDS011;10915;54.352;9.074;2022-09-20T11:25:01;4.67;;;1.20;;
21507;SDS011;10915;54.352;9.074;2022-09-20T11:30:54;9.33;;;1.30;;
21507;SDS011;10915;54.352;9.074;2022-09-20T11:36:38;5.97;;;1.37;;
21507;SDS011;10915;54.352;9.074;2022-09-20T11:39:15;3.73;;;0.90;;
21507;SDS011;10915;54.352;9.074;2022-09-20T11:41:48;3.00;;;0.80;;
21507;SDS011;10915;54.352;9.074;2022-09-20T11:44:18;4.80;;;1.40;;
21507;SDS011;10915;54.352;9.074;2022-09-20T11:46:49;4.20;;;1.30;;
21507;SDS011;10915;54.352;9.074;2022-09-20T11:49:25;4.00;;;1.10;;
21507;SDS011;10915;54.352;9.074;2022-09-20T11:52:47;6.07;;;1.23;;
21507;SDS011;10915;54.352;9.074;2022-09-20T11:58:09;6.80;;;1.40;;
21507;SDS011;10915;54.352;9.074;2022-09-20T12:00:38;2.80;;;0.77;;
21507;SDS011;10915;54.352;9.074;2022-09-20T12:03:30;4.10;;;1.20;;
21507;SDS011;10915;54.352;9.074;2022-09-20T12:06:36;4.10;;;1.10;;
21507;SDS011;10915;54.352;9.074;2022-09-20T12:08:49;5.67;;;1.10;;
21507;SDS011;10915;54.352;9.074;2022-09-20T12:11:15;3.67;;;1.10;;
21507;SDS011;10915;54.352;9.074;2022-09-20T12:13:56;6.00;;;1.20;;
21507;SDS011;10915;54.352;9.074;2022-09-20T12:16:40;4.80;;;1.10;;
21507;SDS011;10915;54.352;9.074;2022-09-20T12:24:28;4.97;;;1.30;;
21507;SDS011;10915;54.352;9.074;2022-09-20T12:30:03;6.00;;;1.20;;
21507;SDS011;10915;54.352;9.074;2022-09-20T12:32:33;2.97;;;0.97;;
21507;SDS011;10915;54.352;9.074;2022-09-20T12:41:02;3.90;;;1.20;;
21507;SDS011;10915;54.352;9.074;2022-09-20T12:43:32;6.90;;;1.40;;
21507;SDS011;10915;54.352;9.074;2022-09-20T12:46:01;5.53;;;1.20;;
21507;SDS011;10915;54.352;9.074;2022-09-20T12:48:42;5.10;;;1.37;;
21507;SDS011;10915;54.352;9.074;2022-09-20T12:54:03;6.67;;;1.40;;
21507;SDS011;10915;54.352;9.074;2022-09-20T12:56:36;9.10;;;1.03;;
21507;SDS011;10915;54.352;9.074;2022-09-20T12:59:04;3.37;;;0.93;;
21507;SDS011;10915;54.352;9.074;2022-09-20T13:01:45;7.50;;;1.40;;
21507;SDS011;10915;54.352;9.074;2022-09-20T13:07:48;6.23;;;1.13;;
21507;SDS011;10915;54.352;9.074;2022-09-20T13:10:24;8.00;;;1.73;;
21507;SDS011;10915;54.352;9.074;2022-09-20T13:12:58;5.37;;;1.10;;
21507;SDS011;10915;54.352;9.074;2022-09-20T13:15:28;6.50;;;1.40;;
21507;SDS011;10915;54.352;9.074;2022-09-20T13:17:57;3.40;;;0.90;;
21507;SDS011;10915;54.352;9.074;2022-09-20T13:20:26;9.93;;;1.63;;
21507;SDS011;10915;54.352;9.074;2022-09-20T13:22:58;4.50;;;1.07;;
21507;SDS011;10915;54.352;9.074;2022-09-20T13:25:25;9.77;;;1.43;;
21507;SDS011;10915;54.352;9.074;2022-09-20T13:30:25;8.57;;;1.37;;
21507;SDS011;10915;54.352;9.074;2022-09-20T13:32:53;3.87;;;0.80;;
21507;SDS011;10915;54.352;9.074;2022-09-20T13:37:57;3.00;;;0.93;;
21507;SDS011;10915;54.352;9.074;2022-09-20T13:45:56;3.23;;;1.00;;
21507;SDS011;10915;54.352;9.074;2022-09-20T13:48:24;4.90;;;1.20;;
21507;SDS011;10915;54.352;9.074;2022-09-20T13:50:51;4.70;;;1.20;;
21507;SDS011;10915;54.352;9.074;2022-09-20T13:53:20;3.73;;;0.80;;
21507;SDS011;10915;54.352;9.074;2022-09-20T13:55:47;4.47;;;1.43;;
21507;SDS011;10915;54.352;9.074;2022-09-20T13:58:20;3.27;;;0.93;;
21507;SDS011;10915;54.352;9.074;2022-09-20T14:00:58;3.17;;;0.83;;
21507;SDS011;10915;54.352;9.074;2022-09-20T14:03:27;4.97;;;1.17;;
21507;SDS011;10915;54.352;9.074;2022-09-20T14:05:57;3.43;;;1.07;;
21507;SDS011;10915;54.352;9.074;2022-09-20T14:08:31;4.73;;;1.37;;
21507;SDS011;10915;54.352;9.074;2022-09-20T14:13:43;3.03;;;0.97;;
21507;SDS011;10915;54.352;9.074;2022-09-20T14:16:14;7.00;;;1.40;;
21507;SDS011;10915;54.352;9.074;2022-09-20T14:18:41;2.87;;;0.87;;
21507;SDS011;10915;54.352;9.074;2022-09-20T14:21:09;3.73;;;0.90;;
21507;SDS011;10915;54.352;9.074;2022-09-20T14:23:49;4.67;;;1.30;;
21507;SDS011;10915;54.352;9.074;2022-09-20T14:28:43;3.63;;;0.57;;
21507;SDS011;10915;54.352;9.074;2022-09-20T14:31:13;5.93;;;0.63;;
21507;SDS011;10915;54.352;9.074;2022-09-20T14:33:44;11.30;;;1.50;;
21507;SDS011;10915;54.352;9.074;2022-09-20T14:36:15;6.43;;;1.17;;
21507;SDS011;10915;54.352;9.074;2022-09-20T14:38:45;5.83;;;0.90;;
21507;SDS011;10915;54.352;9.074;2022-09-20T14:41:20;5.43;;;0.80;;
21507;SDS011;10915;54.352;9.074;2022-09-20T14:43:58;6.63;;;1.23;;
21507;SDS011;10915;54.352;9.074;2022-09-20T14:46:31;3.70;;;1.00;;
21507;SDS011;10915;54.352;9.074;2022-09-20T14:51:52;5.23;;;1.00;;
21507;SDS011;10915;54.352;9.074;2022-09-20T14:54:38;8.90;;;1.30;;
21507;SDS011;10915;54.352;9.074;2022-09-20T14:57:05;5.10;;;1.10;;
21507;SDS011;10915;54.352;9.074;2022-09-20T14:59:36;5.33;;;1.57;;
21507;SDS011;10915;54.352;9.074;2022-09-20T15:04:31;4.80;;;1.10;;
21507;SDS011;10915;54.352;9.074;2022-09-20T15:07:03;4.20;;;0.90;;
21507;SDS011;10915;54.352;9.074;2022-09-20T15:09:31;5.07;;;1.07;;
21507;SDS011;10915;54.352;9.074;2022-09-20T15:11:58;7.67;;;1.50;;
21507;SDS011;10915;54.352;9.074;2022-09-20T15:14:27;3.40;;;0.90;;
21507;SDS011;10915;54.352;9.074;2022-09-20T15:16:53;6.47;;;0.93;;
21507;SDS011;10915;54.352;9.074;2022-09-20T15:19:19;2.67;;;0.83;;
21507;SDS011;10915;54.352;9.074;2022-09-20T15:21:45;3.27;;;0.60;;
21507;SDS011;10915;54.352;9.074;2022-09-20T15:24:10;4.83;;;0.93;;
21507;SDS011;10915;54.352;9.074;2022-09-20T15:26:36;3.93;;;1.00;;
21507;SDS011;10915;54.352;9.074;2022-09-20T15:29:02;1.93;;;0.60;;
21507;SDS011;10915;54.352;9.074;2022-09-20T15:31:28;4.00;;;1.13;;
21507;SDS011;10915;54.352;9.074;2022-09-20T15:33:53;5.20;;;0.80;;
21507;SDS011;10915;54.352;9.074;2022-09-20T15:36:19;4.03;;;0.90;;
21507;SDS011;10915;54.352;9.074;2022-09-20T15:38:45;3.23;;;0.90;;
21507;SDS011;10915;54.352;9.074;2022-09-20T15:41:10;5.37;;;1.20;;
21507;SDS011;10915;54.352;9.074;2022-09-20T15:43:36;7.67;;;1.13;;
21507;SDS011;10915;54.352;9.074;2022-09-20T15:46:20;3.97;;;1.10;;
21507;SDS011;10915;54.352;9.074;2022-09-20T15:48:47;4.57;;;1.20;;
21507;SDS011;10915;54.352;9.074;2022-09-20T15:51:13;4.43;;;0.60;;
21507;SDS011;10915;54.352;9.074;2022-09-20T15:58:46;4.80;;;0.87;;
21507;SDS011;10915;54.352;9.074;2022-09-20T16:01:17;1.57;;;0.77;;
21507;SDS011;10915;54.352;9.074;2022-09-20T16:03:44;4.23;;;0.90;;
21507;SDS011;10915;54.352;9.074;2022-09-20T16:06:10;6.90;;;1.30;;
21507;SDS011;10915;54.352;9.074;2022-09-20T16:08:38;3.63;;;0.77;;
21507;SDS011;10915;54.352;9.074;2022-09-20T16:11:05;3.80;;;1.00;;
21507;SDS011;10915;54.352;9.074;2022-09-20T16:13:32;4.03;;;1.20;;
21507;SDS011;10915;54.352;9.074;2022-09-20T16:16:01;3.97;;;1.00;;
21507;SDS011;10915;54.352;9.074;2022-09-20T16:18:27;3.93;;;0.83;;
21507;SDS011;10915;54.352;9.074;2022-09-20T16:21:12;5.30;;;1.13;;
21507;SDS011;10915;54.352;9.074;2022-09-20T16:23:40;4.20;;;0.87;;
21507;SDS011;10915;54.352;9.074;2022-09-20T16:26:10;6.13;;;0.93;;
21507;SDS011;10915;54.352;9.074;2022-09-20T16:28:39;3.87;;;1.20;;
21507;SDS011;10915;54.352;9.074;2022-09-20T16:31:05;7.83;;;0.83;;
21507;SDS011;10915;54.352;9.074;2022-09-20T16:33:31;7.03;;;1.00;;
21507;SDS011;10915;54.352;9.074;2022-09-20T16:35:57;2.67;;;0.90;;
21507;SDS011;10915;54.352;9.074;2022-09-20T16:38:23;8.07;;;1.10;;
21507;SDS011;10915;54.352;9.074;2022-09-20T16:40:49;4.17;;;0.87;;
21507;SDS011;10915;54.352;9.074;2022-09-20T16:43:15;3.57;;;0.83;;
21507;SDS011;10915;54.352;9.074;2022-09-20T16:45:56;4.73;;;0.93;;
21507;SDS011;10915;54.352;9.074;2022-09-20T16:48:25;3.40;;;0.80;;
21507;SDS011;10915;54.352;9.074;2022-09-20T16:50:55;3.03;;;0.67;;
21507;SDS011;10915;54.352;9.074;2022-09-20T16:53:21;5.27;;;0.80;;
21507;SDS011;10915;54.352;9.074;2022-09-20T16:55:47;4.63;;;0.90;;
21507;SDS011;10915;54.352;9.074;2022-09-20T16:58:13;5.93;;;1.00;;
21507;SDS011;10915;54.352;9.074;2022-09-20T17:00:39;3.60;;;0.93;;
21507;SDS011;10915;54.352;9.074;2022-09-20T17:03:04;6.77;;;1.10;;
21507;SDS011;10915;54.352;9.074;2022-09-20T17:05:30;5.33;;;1.23;;
21507;SDS011;10915;54.352;9.074;2022-09-20T17:07:56;4.00;;;0.90;;
21507;SDS011;10915;54.352;9.074;2022-09-20T17:10:21;4.87;;;0.73;;
21507;SDS011;10915;54.352;9.074;2022-09-20T17:12:48;6.10;;;1.20;;
21507;SDS011;10915;54.352;9.074;2022-09-20T17:15:17;9.47;;;1.30;;
21507;SDS011;10915;54.352;9.074;2022-09-20T17:17:46;7.33;;;1.50;;
21507;SDS011;10915;54.352;9.074;2022-09-20T17:20:11;5.20;;;1.27;;
21507;SDS011;10915;54.352;9.074;2022-09-20T17:22:37;4.57;;;1.03;;
21507;SDS011;10915;54.352;9.074;2022-09-20T17:25:03;5.47;;;1.23;;
21507;SDS011;10915;54.352;9.074;2022-09-20T17:27:30;6.47;;;1.20;;
21507;SDS011;10915;54.352;9.074;2022-09-20T17:29:56;5.23;;;1.10;;
21507;SDS011;10915;54.352;9.074;2022-09-20T17:32:21;5.03;;;1.20;;
21507;SDS011;10915;54.352;9.074;2022-09-20T17:34:47;6.33;;;1.20;;
21507;SDS011;10915;54.352;9.074;2022-09-20T17:37:13;6.40;;;1.20;;
21507;SDS011;10915;54.352;9.074;2022-09-20T17:39:39;6.73;;;1.97;;
21507;SDS011;10915;54.352;9.074;2022-09-20T17:42:05;4.47;;;1.00;;
21507;SDS011;10915;54.352;9.074;2022-09-20T17:44:30;5.37;;;1.33;;
21507;SDS011;10915;54.352;9.074;2022-09-20T17:47:00;7.70;;;1.33;;
21507;SDS011;10915;54.352;9.074;2022-09-20T17:49:26;7.87;;;1.50;;
21507;SDS011;10915;54.352;9.074;2022-09-20T17:51:53;3.37;;;0.83;;
21507;SDS011;10915;54.352;9.074;2022-09-20T17:54:19;6.10;;;1.33;;
21507;SDS011;10915;54.352;9.074;2022-09-20T17:56:49;6.30;;;1.60;;
21507;SDS011;10915;54.352;9.074;2022-09-20T17:59:17;4.57;;;1.20;;
21507;SDS011;10915;54.352;9.074;2022-09-20T18:01:44;5.53;;;1.10;;
21507;SDS011;10915;54.352;9.074;2022-09-20T18:04:11;4.17;;;1.13;;
21507;SDS011;10915;54.352;9.074;2022-09-20T18:06:39;10.30;;;1.30;;
21507;SDS011;10915;54.352;9.074;2022-09-20T18:09:15;7.80;;;1.43;;
21507;SDS011;10915;54.352;9.074;2022-09-20T18:11:44;4.50;;;1.10;;
21507;SDS011;10915;54.352;9.074;2022-09-20T18:14:13;5.37;;;1.20;;
21507;SDS011;10915;54.352;9.074;2022-09-20T18:16:39;7.17;;;1.20;;
21507;SDS011;10915;54.352;9.074;2022-09-20T18:19:07;5.47;;;1.00;;
21507;SDS011;10915;54.352;9.074;2022-09-20T18:21:33;6.90;;;1.30;;
21507;SDS011;10915;54.352;9.074;2022-09-20T18:24:00;6.50;;;0.93;;
21507;SDS011;10915;54.352;9.074;2022-09-20T18:26:29;5.67;;;1.37;;
21507;SDS011;10915;54.352;9.074;2022-09-20T18:34:14;8.00;;;1.40;;
21507;SDS011;10915;54.352;9.074;2022-09-20T18:36:42;6.63;;;1.60;;
21507;SDS011;10915;54.352;9.074;2022-09-20T18:39:18;5.10;;;1.30;;
21507;SDS011;10915;54.352;9.074;2022-09-20T18:41:48;3.50;;;1.13;;
21507;SDS011;10915;54.352;9.074;2022-09-20T18:44:14;5.30;;;1.83;;
21507;SDS011;10915;54.352;9.074;2022-09-20T18:46:42;7.57;;;1.70;;
21507;SDS011;10915;54.352;9.074;2022-09-20T18:49:08;5.03;;;1.40;;
21507;SDS011;10915;54.352;9.074;2022-09-20T18:51:36;5.53;;;1.20;;
21507;SDS011;10915;54.352;9.074;2022-09-20T18:54:03;6.43;;;1.37;;
21507;SDS011;10915;54.352;9.074;2022-09-20T18:56:32;7.47;;;2.10;;
21507;SDS011;10915;54.352;9.074;2022-09-20T19:04:23;6.73;;;1.30;;
21507;SDS011;10915;54.352;9.074;2022-09-20T19:12:34;6.40;;;1.47;;
21507;SDS011;10915;54.352;9.074;2022-09-20T19:20:16;7.13;;;1.47;;
21507;SDS011;10915;54.352;9.074;2022-09-20T19:26:04;4.80;;;1.40;;
21507;SDS011;10915;54.352;9.074;2022-09-20T19:28:31;4.77;;;1.53;;
21507;SDS011;10915;54.352;9.074;2022-09-20T19:30:57;4.67;;;1.30;;
21507;SDS011;10915;54.352;9.074;2022-09-20T19:33:23;6.50;;;1.60;;
21507;SDS011;10915;54.352;9.074;2022-09-20T19:35:49;9.10;;;1.77;;
21507;SDS011;10915;54.352;9.074;2022-09-20T19:49:04;3.27;;;1.20;;
21507;SDS011;10915;54.352;9.074;2022-09-20T19:51:51;2.77;;;0.87;;
21507;SDS011;10915;54.352;9.074;2022-09-20T19:54:21;2.60;;;1.23;;
21507;SDS011;10915;54.352;9.074;2022-09-20T19:56:54;3.43;;;0.90;;
21507;SDS011;10915;54.352;9.074;2022-09-20T19:59:22;3.57;;;1.40;;
21507;SDS011;10915;54.352;9.074;2022-09-20T20:01:50;6.27;;;1.40;;
21507;SDS011;10915;54.352;9.074;2022-09-20T20:04:16;3.43;;;1.07;;
21507;SDS011;10915;54.352;9.074;2022-09-20T20:14:48;2.87;;;1.20;;
21507;SDS011;10915;54.352;9.074;2022-09-20T20:17:47;4.73;;;1.10;;
21507;SDS011;10915;54.352;9.074;2022-09-20T20:28:31;3.10;;;1.33;;
21507;SDS011;10915;54.352;9.074;2022-09-20T20:30:58;4.10;;;0.90;;
21507;SDS011;10915;54.352;9.074;2022-09-20T20:33:27;3.47;;;1.10;;
21507;SDS011;10915;54.352;9.074;2022-09-20T20:35:54;5.60;;;1.23;;
21507;SDS011;10915;54.352;9.074;2022-09-20T20:38:22;3.33;;;1.03;;
21507;SDS011;10915;54.352;9.074;2022-09-20T20:41:23;2.83;;;1.07;;
21507;SDS011;10915;54.352;9.074;2022-09-20T20:43:44;3.03;;;1.13;;
21507;SDS011;10915;54.352;9.074;2022-09-20T20:46:14;5.30;;;0.90;;
21507;SDS011;10915;54.352;9.074;2022-09-20T20:48:42;2.07;;;1.00;;
21507;SDS011;10915;54.352;9.074;2022-09-20T20:51:09;4.43;;;1.00;;
21507;SDS011;10915;54.352;9.074;2022-09-20T20:53:37;2.50;;;0.90;;
21507;SDS011;10915;54.352;9.074;2022-09-20T20:56:09;2.27;;;1.10;;
21507;SDS011;10915;54.352;9.074;2022-09-20T20:58:37;2.27;;;1.27;;
21507;SDS011;10915;54.352;9.074;2022-09-20T21:03:36;3.50;;;1.40;;